Time;durP1;ratioP1;P1;durP2;ratioP2;P2;SDS_P1;SDS_P2;PMS_P1;PMS_P2;Temp;Humidity;BMP_temperature;BMP_pressure;BME280_temperature;BME280_humidity;BME280_pressure;Samples;Min_cycle;Max_cycle;Signal;HPM_P1;HPM_P2
2022/05/18 00:00:14;;;;;;;4.93;1.70;;;18.00;99.90;;;;;;5015374;28;20204;-78
2022/05/18 00:02:40;;;;;;;4.47;1.63;;;18.00;99.90;;;;;;5015536;28;20317;-78
2022/05/18 00:05:06;;;;;;;3.77;1.90;;;18.00;99.90;;;;;;5015626;28;20177;-78
2022/05/18 00:07:32;;;;;;;3.17;1.80;;;18.00;99.90;;;;;;5014839;28;20251;-78
2022/05/18 00:09:57;;;;;;;4.13;1.87;;;18.00;99.90;;;;;;5017176;28;20627;-78
2022/05/18 00:12:24;;;;;;;3.07;2.00;;;18.00;99.90;;;;;;5014850;28;20205;-78
2022/05/18 00:14:50;;;;;;;6.00;1.73;;;18.00;99.90;;;;;;5015085;28;20746;-78
2022/05/18 00:17:15;;;;;;;4.17;1.87;;;18.00;99.90;;;;;;5017570;28;20201;-78
2022/05/18 00:19:41;;;;;;;2.07;1.70;;;18.00;99.90;;;;;;5017568;28;20623;-79
2022/05/18 00:22:06;;;;;;;2.90;1.70;;;18.00;99.90;;;;;;5015560;28;20717;-78
2022/05/18 00:24:32;;;;;;;2.90;1.70;;;18.00;99.90;;;;;;5014888;28;20579;-78
2022/05/18 00:26:57;;;;;;;2.90;2.00;;;18.00;99.90;;;;;;5014456;28;20704;-78
2022/05/18 00:29:23;;;;;;;4.17;1.90;;;18.00;99.90;;;;;;5016378;28;20181;-77
2022/05/18 00:31:49;;;;;;;4.97;1.63;;;17.90;99.90;;;;;;5015379;28;20223;-78
2022/05/18 00:34:16;;;;;;;2.93;1.80;;;17.90;99.90;;;;;;5018930;28;20176;-78
2022/05/18 00:36:42;;;;;;;3.67;2.00;;;18.00;99.90;;;;;;5017907;28;20180;-78
2022/05/18 00:39:08;;;;;;;2.53;1.93;;;17.90;99.90;;;;;;5019117;28;20192;-78
2022/05/18 00:41:34;;;;;;;2.10;1.77;;;17.90;99.90;;;;;;5017010;28;20232;-78
2022/05/18 00:43:59;;;;;;;3.47;1.70;;;17.90;99.90;;;;;;5032682;28;20197;-78
2022/05/18 00:46:25;;;;;;;3.53;1.63;;;17.90;99.90;;;;;;5017762;28;20188;-78
2022/05/18 00:48:53;;;;;;;5.83;1.80;;;17.90;99.90;;;;;;5016111;28;20184;-78
2022/05/18 00:51:58;;;;;;;3.13;1.60;;;17.90;99.90;;;;;;5019384;28;20287;-78
2022/05/18 00:54:28;;;;;;;4.13;1.80;;;17.90;99.90;;;;;;5016369;28;20244;-78
2022/05/18 00:57:34;;;;;;;4.73;1.70;;;17.90;99.90;;;;;;5020037;28;20196;-78
2022/05/18 01:00:07;;;;;;;6.07;1.83;;;17.90;99.90;;;;;;4939332;29;20187;-78
2022/05/18 01:02:37;;;;;;;5.33;1.77;;;17.90;99.90;;;;;;5003799;28;20278;-77
2022/05/18 01:05:07;;;;;;;4.67;1.73;;;17.90;99.90;;;;;;5016255;28;20181;-78
2022/05/18 01:07:37;;;;;;;3.00;1.77;;;17.90;99.90;;;;;;5018619;28;20165;-78
2022/05/18 01:10:04;;;;;;;3.97;2.27;;;17.90;99.90;;;;;;5016664;28;20185;-77
2022/05/18 01:12:30;;;;;;;3.30;2.20;;;17.90;99.90;;;;;;5016538;28;20212;-76
2022/05/18 01:15:03;;;;;;;2.37;1.70;;;17.90;99.90;;;;;;5014442;28;20177;-78
2022/05/18 01:17:32;;;;;;;2.07;1.60;;;17.90;99.90;;;;;;5016409;28;20173;-78
2022/05/18 01:20:00;;;;;;;2.77;1.80;;;17.80;99.90;;;;;;5017616;28;20177;-77
2022/05/18 01:22:54;;;;;;;4.47;2.17;;;17.80;99.90;;;;;;5017265;28;20291;-77
2022/05/18 01:25:25;;;;;;;2.13;1.53;;;17.80;99.90;;;;;;5016878;28;20276;-78
2022/05/18 01:27:52;;;;;;;3.47;2.10;;;17.80;86.00;;;;;;5017833;28;20180;-76
2022/05/18 01:30:18;;;;;;;3.23;1.90;;;17.80;88.50;;;;;;5016043;28;20276;-78
2022/05/18 01:32:50;;;;;;;3.40;1.80;;;17.80;97.50;;;;;;5017905;28;20231;-77
2022/05/18 01:35:19;;;;;;;3.50;2.10;;;17.90;96.40;;;;;;5017559;28;20654;-78
2022/05/18 01:37:44;;;;;;;3.80;2.10;;;17.80;99.90;;;;;;5017734;28;20185;-77
2022/05/18 01:40:31;;;;;;;5.17;1.93;;;17.80;99.90;;;;;;5016309;28;20188;-77
2022/05/18 01:43:32;;;;;;;3.93;1.90;;;17.80;99.90;;;;;;5014986;28;20226;-77
2022/05/18 01:46:01;;;;;;;4.73;2.30;;;17.80;99.90;;;;;;5010270;28;20543;-78
2022/05/18 01:48:32;;;;;;;5.70;1.93;;;17.80;99.90;;;;;;5018208;28;20180;-76
2022/05/18 01:50:59;;;;;;;4.97;2.20;;;17.80;99.90;;;;;;5018640;28;20260;-78
2022/05/18 01:53:26;;;;;;;3.57;1.80;;;17.80;99.90;;;;;;5017006;28;20197;-78
2022/05/18 01:55:51;;;;;;;3.60;2.10;;;17.70;99.90;;;;;;5017292;28;20235;-78
2022/05/18 01:58:17;;;;;;;3.87;2.60;;;17.70;99.90;;;;;;5018222;28;20635;-78
2022/05/18 02:00:44;;;;;;;3.80;1.90;;;17.70;99.90;;;;;;5018433;28;20184;-77
2022/05/18 02:03:10;;;;;;;2.40;1.90;;;17.70;99.90;;;;;;5016968;28;20205;-78
2022/05/18 02:05:36;;;;;;;3.80;2.20;;;17.70;99.90;;;;;;5018206;28;20192;-78
2022/05/18 02:08:03;;;;;;;4.47;2.00;;;17.70;99.90;;;;;;5020955;28;20180;-78
2022/05/18 02:10:28;;;;;;;4.47;1.87;;;17.70;99.90;;;;;;5022289;28;20184;-78
2022/05/18 02:12:54;;;;;;;5.07;2.33;;;17.70;99.90;;;;;;5018435;28;20694;-77
2022/05/18 02:15:20;;;;;;;2.83;1.90;;;17.70;99.90;;;;;;5018286;28;20177;-78
2022/05/18 02:17:45;;;;;;;3.53;2.23;;;17.70;99.90;;;;;;5017734;28;20519;-78
2022/05/18 02:20:12;;;;;;;5.17;1.83;;;17.70;99.90;;;;;;5017573;28;20537;-78
2022/05/18 02:22:38;;;;;;;2.00;1.80;;;17.70;99.90;;;;;;5017674;28;20209;-77
2022/05/18 02:25:04;;;;;;;6.40;2.40;;;17.70;99.90;;;;;;5017057;28;20165;-78
2022/05/18 02:27:30;;;;;;;4.17;2.23;;;17.60;99.90;;;;;;5015890;28;20181;-77
2022/05/18 02:29:56;;;;;;;3.37;2.17;;;17.60;99.90;;;;;;5015534;28;20249;-78
2022/05/18 02:32:22;;;;;;;3.90;2.13;;;17.60;99.90;;;;;;5015188;28;20685;-78
2022/05/18 02:34:48;;;;;;;4.87;2.27;;;17.60;99.90;;;;;;5016339;28;20193;-78
2022/05/18 02:37:13;;;;;;;3.13;1.90;;;17.60;99.90;;;;;;5015524;28;20192;-78
2022/05/18 02:39:39;;;;;;;2.47;1.67;;;17.60;99.90;;;;;;5015070;28;20204;-77
2022/05/18 02:42:05;;;;;;;4.00;1.90;;;17.50;99.90;;;;;;5014827;28;20213;-78
2022/05/18 02:44:31;;;;;;;3.83;2.10;;;17.50;99.90;;;;;;5014407;28;20220;-77
2022/05/18 02:46:59;;;;;;;4.57;2.50;;;17.50;99.90;;;;;;5016168;28;20173;-78
2022/05/18 02:49:25;;;;;;;3.60;2.40;;;17.50;99.90;;;;;;5016858;28;20168;-78
2022/05/18 02:51:51;;;;;;;3.50;1.80;;;17.50;99.90;;;;;;5015930;28;20196;-77
2022/05/18 02:57:04;;;;;;;2.93;2.10;;;17.50;99.90;;;;;;5015803;28;20570;-78
2022/05/18 02:59:30;;;;;;;6.73;2.40;;;17.50;99.90;;;;;;5016480;28;20231;-78
2022/05/18 03:01:56;;;;;;;5.30;2.27;;;17.50;99.90;;;;;;5014756;28;20284;-77
2022/05/18 03:04:21;;;;;;;2.87;2.10;;;17.50;99.90;;;;;;5016275;28;20212;-78
2022/05/18 03:06:47;;;;;;;5.13;2.00;;;17.40;99.90;;;;;;5015699;28;20169;-77
2022/05/18 03:09:13;;;;;;;3.27;2.17;;;17.40;99.90;;;;;;5016419;28;20545;-78
2022/05/18 03:11:39;;;;;;;6.23;2.50;;;17.40;99.90;;;;;;5014689;28;20239;-78
2022/05/18 03:14:04;;;;;;;3.43;2.00;;;17.40;99.90;;;;;;5014732;28;20642;-78
2022/05/18 03:16:31;;;;;;;4.10;2.13;;;17.40;99.90;;;;;;5015281;28;20189;-77
2022/05/18 03:18:57;;;;;;;2.97;2.17;;;17.40;99.90;;;;;;5014015;28;20185;-78
2022/05/18 03:24:07;;;;;;;2.77;2.43;;;17.40;99.90;;;;;;5015539;28;20235;-78
2022/05/18 03:26:33;;;;;;;5.97;2.03;;;17.40;99.90;;;;;;5015579;28;20177;-77
2022/05/18 03:28:59;;;;;;;5.20;2.30;;;17.40;99.90;;;;;;5015836;28;20178;-78
2022/05/18 03:31:26;;;;;;;4.40;2.03;;;17.40;99.90;;;;;;5016383;28;20542;-78
2022/05/18 03:33:55;;;;;;;3.87;2.37;;;17.40;99.90;;;;;;5015657;28;20211;-77
2022/05/18 03:36:21;;;;;;;6.03;2.40;;;17.40;99.90;;;;;;5015725;28;20212;-77
2022/05/18 03:38:48;;;;;;;6.67;2.63;;;17.40;99.90;;;;;;5014635;28;20187;-77
2022/05/18 03:41:14;;;;;;;3.87;2.20;;;17.40;99.90;;;;;;5016037;28;20200;-78
2022/05/18 03:43:40;;;;;;;3.07;2.00;;;17.40;99.90;;;;;;5015872;28;20224;-78
2022/05/18 03:46:06;;;;;;;4.40;2.37;;;17.30;99.90;;;;;;5015289;28;20602;-77
2022/05/18 03:48:33;;;;;;;4.53;2.17;;;17.30;99.90;;;;;;5015862;28;20169;-76
2022/05/18 03:51:00;;;;;;;5.60;2.20;;;17.30;99.90;;;;;;5016096;28;20173;-77
2022/05/18 03:53:26;;;;;;;5.97;2.13;;;17.30;99.90;;;;;;5015890;28;20209;-77
2022/05/18 03:55:52;;;;;;;2.27;1.83;;;17.20;99.90;;;;;;5013561;28;20563;-78
2022/05/18 03:58:18;;;;;;;3.30;1.90;;;17.30;99.90;;;;;;5014512;28;20180;-78
2022/05/18 04:00:47;;;;;;;6.20;2.30;;;17.30;99.90;;;;;;5013601;28;20706;-78
2022/05/18 04:03:14;;;;;;;5.20;2.43;;;17.30;99.90;;;;;;5006673;28;20181;-78
2022/05/18 04:05:40;;;;;;;3.90;2.30;;;17.20;99.90;;;;;;5005334;28;20176;-78
2022/05/18 04:08:10;;;;;;;3.87;2.10;;;17.20;99.90;;;;;;5007666;28;20173;-80
2022/05/18 04:10:38;;;;;;;5.97;2.10;;;17.10;99.90;;;;;;5010274;28;20196;-77
2022/05/18 04:13:04;;;;;;;4.40;2.20;;;17.20;99.90;;;;;;5012182;28;20658;-77
2022/05/18 04:15:30;;;;;;;3.60;2.37;;;17.20;99.90;;;;;;5011255;28;20546;-77
2022/05/18 04:17:56;;;;;;;3.27;2.07;;;17.20;99.90;;;;;;5013204;28;20177;-77
2022/05/18 04:20:22;;;;;;;5.30;2.40;;;17.20;99.90;;;;;;5016377;28;20177;-77
2022/05/18 04:22:49;;;;;;;5.67;1.90;;;17.30;99.90;;;;;;5017591;28;20216;-78
2022/05/18 04:25:18;;;;;;;3.47;2.33;;;17.20;99.90;;;;;;5018404;28;20168;-76
2022/05/18 04:27:47;;;;;;;3.03;2.10;;;17.20;99.90;;;;;;5018109;28;20237;-77
2022/05/18 04:30:17;;;;;;;4.30;2.50;;;17.20;99.90;;;;;;5017052;28;20196;-77
2022/05/18 04:32:42;;;;;;;4.17;1.97;;;17.20;99.90;;;;;;5017287;28;20280;-77
2022/05/18 04:35:09;;;;;;;4.30;2.70;;;17.20;99.90;;;;;;5017002;28;20213;-76
2022/05/18 04:37:36;;;;;;;4.67;2.20;;;17.30;99.90;;;;;;5015048;28;20176;-77
2022/05/18 04:40:02;;;;;;;4.43;2.20;;;17.30;99.90;;;;;;5016564;28;20174;-77
2022/05/18 04:42:27;;;;;;;3.70;2.40;;;17.20;99.90;;;;;;5018092;28;20295;-77
2022/05/18 04:44:53;;;;;;;3.57;2.00;;;17.30;99.90;;;;;;5019217;28;20207;-78
2022/05/18 04:47:23;;;;;;;4.37;1.80;;;17.30;99.90;;;;;;5016724;28;20264;-77
2022/05/18 04:49:50;;;;;;;5.23;2.47;;;17.30;99.90;;;;;;5015749;28;20188;-77
2022/05/18 04:52:17;;;;;;;3.63;2.00;;;17.30;99.90;;;;;;5016684;28;20196;-77
2022/05/18 04:54:42;;;;;;;5.30;2.60;;;17.30;99.90;;;;;;5015503;28;20208;-77
2022/05/18 04:57:08;;;;;;;2.87;2.33;;;17.40;99.90;;;;;;5015312;28;20199;-77
2022/05/18 04:59:33;;;;;;;4.10;2.27;;;17.30;99.90;;;;;;5018700;28;20195;-78
2022/05/18 05:01:59;;;;;;;4.87;2.30;;;17.40;99.90;;;;;;5015549;28;20310;-78
2022/05/18 05:04:25;;;;;;;4.10;2.20;;;17.40;99.90;;;;;;5023362;28;20185;-76
2022/05/18 05:06:50;;;;;;;5.50;2.43;;;17.40;99.90;;;;;;5018002;28;20189;-77
2022/05/18 05:09:16;;;;;;;5.57;2.33;;;17.40;99.90;;;;;;5002517;28;20178;-78
2022/05/18 05:11:42;;;;;;;3.90;2.37;;;17.40;99.90;;;;;;5013299;28;20298;-78
2022/05/18 05:14:08;;;;;;;8.47;2.40;;;17.50;99.90;;;;;;4997375;28;20178;-77
2022/05/18 05:16:34;;;;;;;4.37;2.47;;;17.50;99.90;;;;;;4996694;28;20178;-77
2022/05/18 05:18:59;;;;;;;4.13;2.10;;;17.50;99.90;;;;;;4994288;28;20185;-77
2022/05/18 05:21:25;;;;;;;3.27;2.10;;;17.50;99.90;;;;;;4996083;28;20203;-77
2022/05/18 05:23:50;;;;;;;4.60;2.20;;;17.50;99.90;;;;;;5012800;28;20192;-77
2022/05/18 05:26:17;;;;;;;2.10;1.90;;;17.50;99.90;;;;;;5013992;28;20185;-77
2022/05/18 05:28:42;;;;;;;6.33;2.30;;;17.60;99.90;;;;;;5015639;28;20173;-77
2022/05/18 05:31:10;;;;;;;3.00;2.10;;;17.60;99.90;;;;;;5015335;28;20572;-77
2022/05/18 05:33:38;;;;;;;4.27;2.20;;;17.60;99.90;;;;;;5015195;28;20668;-77
2022/05/18 05:36:05;;;;;;;2.77;2.00;;;17.60;99.90;;;;;;5015302;28;20173;-76
2022/05/18 05:38:31;;;;;;;6.87;2.20;;;17.70;99.90;;;;;;5014552;28;20181;-76
2022/05/18 05:40:59;;;;;;;3.73;2.23;;;17.70;99.90;;;;;;5013900;28;20283;-78
2022/05/18 05:43:26;;;;;;;3.30;2.30;;;17.80;99.90;;;;;;5013926;28;20212;-77
2022/05/18 05:46:05;;;;;;;4.20;2.00;;;17.80;99.90;;;;;;5015188;28;20195;-77
2022/05/18 05:48:31;;;;;;;2.50;1.97;;;17.90;99.90;;;;;;5015546;28;20157;-77
2022/05/18 05:50:58;;;;;;;5.53;2.40;;;17.90;99.90;;;;;;5015431;28;20169;-77
2022/05/18 05:53:24;;;;;;;3.77;2.17;;;17.90;99.90;;;;;;5013903;28;20204;-77
2022/05/18 05:55:50;;;;;;;4.87;2.20;;;18.00;99.90;;;;;;5015281;28;20237;-78
2022/05/18 05:58:20;;;;;;;3.83;2.40;;;18.00;99.90;;;;;;5014932;28;20165;-77
2022/05/18 06:00:46;;;;;;;4.77;2.20;;;18.10;99.90;;;;;;5013914;28;20184;-77
2022/05/18 06:03:13;;;;;;;7.90;2.27;;;18.10;99.90;;;;;;5014920;28;20192;-77
2022/05/18 06:05:39;;;;;;;3.60;1.73;;;18.20;99.90;;;;;;5013862;28;20184;-76
2022/05/18 06:08:04;;;;;;;3.30;2.17;;;18.20;99.90;;;;;;5003204;28;20181;-77
2022/05/18 06:10:30;;;;;;;4.10;2.33;;;18.20;99.90;;;;;;5010445;28;20185;-75
2022/05/18 06:12:55;;;;;;;7.43;2.23;;;18.30;99.90;;;;;;5014931;28;20192;-77
2022/05/18 06:15:21;;;;;;;4.03;2.13;;;18.40;99.90;;;;;;5015162;28;20173;-77
2022/05/18 06:17:46;;;;;;;2.20;1.63;;;18.40;95.20;;;;;;5015014;28;20200;-78
2022/05/18 06:20:12;;;;;;;2.53;2.07;;;18.50;48.30;;;;;;5015299;28;20173;-77
2022/05/18 06:22:38;;;;;;;4.67;2.10;;;18.60;22.40;;;;;;5012685;28;20217;-77
2022/05/18 06:25:04;;;;;;;5.43;2.40;;;18.60;1.00;;;;;;5013766;28;20215;-78
2022/05/18 06:27:30;;;;;;;3.33;1.80;;;18.60;1.00;;;;;;5014964;28;20227;-77
2022/05/18 06:29:55;;;;;;;3.03;2.00;;;18.70;1.00;;;;;;5014948;28;20169;-77
2022/05/18 06:32:21;;;;;;;6.63;2.20;;;18.80;1.00;;;;;;5014392;28;20197;-78
2022/05/18 06:34:46;;;;;;;4.83;1.80;;;18.80;1.00;;;;;;5013958;28;20215;-77
2022/05/18 06:37:12;;;;;;;5.20;2.10;;;18.90;1.00;;;;;;5013774;28;20177;-78
2022/05/18 06:39:39;;;;;;;4.03;2.03;;;19.00;1.00;;;;;;5013756;28;20204;-77
2022/05/18 06:42:05;;;;;;;3.57;2.10;;;19.00;1.00;;;;;;5014493;28;20586;-77
2022/05/18 06:44:30;;;;;;;3.27;1.87;;;19.10;1.00;;;;;;5015153;28;20207;-77
2022/05/18 06:47:00;;;;;;;5.03;2.00;;;19.20;1.00;;;;;;5018844;28;20543;-78
2022/05/18 06:49:27;;;;;;;4.30;1.97;;;19.30;1.00;;;;;;5018612;28;20169;-78
2022/05/18 06:51:53;;;;;;;4.17;1.90;;;19.30;1.00;;;;;;5018503;28;20192;-78
2022/05/18 06:54:19;;;;;;;3.87;2.23;;;19.40;99.90;;;;;;5017486;28;20187;-78
2022/05/18 06:56:45;;;;;;;3.93;1.60;;;19.50;1.00;;;;;;5017916;28;20283;-78
2022/05/18 06:59:13;;;;;;;8.27;2.37;;;19.70;41.80;;;;;;5019105;28;20184;-78
2022/05/18 07:01:39;;;;;;;4.27;1.73;;;19.70;1.00;;;;;;5018666;28;20622;-78
2022/05/18 07:04:06;;;;;;;4.10;1.93;;;19.80;1.00;;;;;;5017443;28;20212;-78
2022/05/18 07:06:35;;;;;;;5.47;1.90;;;19.90;1.00;;;;;;5018693;28;20243;-78
2022/05/18 07:09:03;;;;;;;2.80;1.73;;;19.90;99.90;;;;;;5017767;28;20227;-78
2022/05/18 07:11:29;;;;;;;3.97;1.80;;;20.00;99.90;;;;;;5018593;28;20172;-78
2022/05/18 07:13:55;;;;;;;4.67;2.40;;;20.00;1.00;;;;;;5015763;28;20267;-78
2022/05/18 07:16:22;;;;;;;4.10;2.10;;;20.10;21.40;;;;;;5016589;28;20176;-78
2022/05/18 07:18:48;;;;;;;6.23;2.37;;;20.10;1.00;;;;;;5017561;28;20173;-78
2022/05/18 07:21:15;;;;;;;9.23;1.67;;;20.20;1.00;;;;;;5017361;28;20232;-78
2022/05/18 07:23:41;;;;;;;3.23;2.17;;;20.20;1.00;;;;;;5017083;28;20193;-78
2022/05/18 07:26:07;;;;;;;4.23;1.97;;;20.20;99.90;;;;;;5017141;28;20176;-78
2022/05/18 07:28:32;;;;;;;3.50;1.70;;;20.30;1.00;;;;;;5017000;28;20204;-78
2022/05/18 07:30:58;;;;;;;5.93;2.10;;;20.40;99.90;;;;;;5015992;28;20181;-78
2022/05/18 07:33:26;;;;;;;6.10;1.90;;;20.50;37.50;;;;;;5015949;28;20756;-78
2022/05/18 07:35:53;;;;;;;5.73;2.00;;;20.60;1.00;;;;;;5017560;28;20177;-78
2022/05/18 07:38:21;;;;;;;4.23;1.93;;;20.60;45.00;;;;;;5016361;28;20219;-78
2022/05/18 07:40:48;;;;;;;2.20;1.47;;;20.60;1.00;;;;;;5017226;28;20170;-78
2022/05/18 07:43:14;;;;;;;4.07;1.90;;;20.70;1.00;;;;;;5017042;28;20247;-78
2022/05/18 07:45:39;;;;;;;6.50;1.87;;;20.80;1.00;;;;;;5021794;28;20642;-78
2022/05/18 07:48:05;;;;;;;3.53;1.80;;;20.90;1.00;;;;;;5021824;28;20203;-78
2022/05/18 07:50:31;;;;;;;3.80;1.87;;;20.90;99.90;;;;;;5021659;28;20263;-79
2022/05/18 07:52:59;;;;;;;3.67;1.60;;;21.00;1.00;;;;;;5026862;28;20323;-79
2022/05/18 07:55:26;;;;;;;4.07;2.63;;;21.00;99.90;;;;;;5026484;28;20203;-79
2022/05/18 07:57:52;;;;;;;3.67;1.73;;;21.10;1.00;;;;;;5026493;28;20173;-79
2022/05/18 08:00:19;;;;;;;4.50;2.00;;;21.20;99.90;;;;;;5029350;28;20240;-78
2022/05/18 08:02:44;;;;;;;2.83;1.90;;;21.30;1.00;;;;;;5030336;28;20293;-77
2022/05/18 08:05:10;;;;;;;3.33;1.77;;;21.30;24.10;;;;;;5018631;28;20220;-78
2022/05/18 08:07:36;;;;;;;3.87;1.87;;;21.40;1.00;;;;;;5019952;28;20173;-78
2022/05/18 08:15:32;;;;;;;3.57;1.83;;;21.70;1.00;;;;;;5019967;28;20172;-79
2022/05/18 08:17:57;;;;;;;4.20;1.97;;;21.70;1.00;;;;;;5018457;28;20184;-78
2022/05/18 08:20:24;;;;;;;3.30;1.77;;;21.70;1.00;;;;;;5019250;28;20217;-78
2022/05/18 08:22:49;;;;;;;4.90;2.10;;;21.80;99.90;;;;;;5019382;28;20213;-78
2022/05/18 08:25:15;;;;;;;5.83;1.80;;;21.90;99.90;;;;;;5019770;28;20561;-78
2022/05/18 08:27:47;;;;;;;3.97;2.10;;;21.90;99.90;;;;;;5018060;28;20651;-79
2022/05/18 08:30:17;;;;;;;3.60;1.77;;;22.10;99.90;;;;;;5019019;28;20172;-78
2022/05/18 08:32:43;;;;;;;4.53;2.00;;;22.10;99.90;;;;;;5018897;28;20269;-77
2022/05/18 08:35:10;;;;;;;3.47;1.73;;;22.10;99.90;;;;;;5019541;28;20180;-78
2022/05/18 08:37:40;;;;;;;3.67;1.97;;;22.30;1.00;;;;;;5019338;28;20180;-78
2022/05/18 08:40:13;;;;;;;4.77;2.13;;;22.40;99.90;;;;;;5020105;28;20205;-78
2022/05/18 08:42:39;;;;;;;4.63;2.07;;;22.60;99.90;;;;;;5017351;28;20694;-78
2022/05/18 08:45:06;;;;;;;6.67;2.23;;;22.60;1.00;;;;;;5018243;28;20260;-78
2022/05/18 08:47:42;;;;;;;7.40;2.33;;;22.80;1.00;;;;;;5018883;28;20260;-78
2022/05/18 08:50:13;;;;;;;9.23;2.00;;;22.80;1.00;;;;;;5019256;28;20243;-78
2022/05/18 08:53:02;;;;;;;4.33;1.73;;;22.90;1.00;;;;;;5017855;28;20292;-78
2022/05/18 08:56:01;;;;;;;3.83;1.87;;;23.00;1.00;;;;;;5019881;28;20227;-80
2022/05/18 08:58:29;;;;;;;5.43;2.30;;;23.20;1.00;;;;;;5021585;28;20197;-78
2022/05/18 09:01:12;;;;;;;5.00;2.07;;;23.50;99.90;;;;;;5020422;28;20181;-79
2022/05/18 09:03:45;;;;;;;4.77;2.20;;;23.60;99.90;;;;;;5020556;28;20189;-79
2022/05/18 09:06:23;;;;;;;4.00;1.77;;;23.80;35.10;;;;;;5020746;28;20173;-78
2022/05/18 09:11:47;;;;;;;5.13;2.10;;;23.90;99.90;;;;;;5020259;28;20214;-79
2022/05/18 09:14:17;;;;;;;5.97;2.17;;;23.90;99.90;;;;;;5020054;28;20170;-79
2022/05/18 09:16:50;;;;;;;4.10;2.00;;;23.90;99.90;;;;;;5019629;28;20169;-78
2022/05/18 09:19:41;;;;;;;4.60;2.10;;;23.90;1.00;;;;;;5020611;28;20168;-78
2022/05/18 09:22:21;;;;;;;5.67;2.30;;;24.00;99.90;;;;;;5019697;28;20207;-80
2022/05/18 09:25:01;;;;;;;5.60;2.17;;;24.20;1.00;;;;;;5018074;28;20165;-78
2022/05/18 09:27:44;;;;;;;3.67;2.23;;;24.20;99.90;;;;;;5019793;28;20160;-78
2022/05/18 09:30:22;;;;;;;8.17;2.27;;;24.20;99.90;;;;;;5020061;28;20165;-78
2022/05/18 09:33:18;;;;;;;5.43;2.10;;;24.40;23.10;;;;;;5020050;28;20196;-79
2022/05/18 09:35:51;;;;;;;3.13;2.10;;;24.40;52.00;;;;;;5018846;28;20167;-78
2022/05/18 09:38:22;;;;;;;5.87;2.40;;;24.60;1.00;;;;;;5019021;28;20169;-79
2022/05/18 09:40:50;;;;;;;3.97;2.00;;;24.60;1.00;;;;;;5019145;28;20671;-78
2022/05/18 09:43:24;;;;;;;6.43;2.40;;;24.70;99.90;;;;;;5036999;22;20307;-79
2022/05/18 09:45:50;;;;;;;4.00;2.37;;;24.60;99.90;;;;;;5037734;28;20203;-78
2022/05/18 09:48:34;;;;;;;5.07;1.80;;;24.70;1.00;;;;;;5037701;28;20173;-79
2022/05/18 09:51:00;;;;;;;5.83;2.10;;;24.80;1.00;;;;;;5036677;28;20247;-79
2022/05/18 09:53:26;;;;;;;5.23;2.00;;;25.10;99.90;;;;;;5037393;28;20245;-80
2022/05/18 09:55:52;;;;;;;4.87;2.13;;;24.90;1.00;;;;;;5020493;28;20231;-79
2022/05/18 09:58:32;;;;;;;6.80;2.10;;;25.00;1.00;;;;;;5034372;28;20172;-77
2022/05/18 10:09:42;;;;;;;5.30;1.97;;;25.30;1.00;;;;;;5034405;28;20163;-77
2022/05/18 10:12:30;;;;;;;6.87;2.23;;;25.40;1.00;;;;;;5016389;28;20168;-76
2022/05/18 10:15:07;;;;;;;5.67;2.10;;;25.40;1.00;;;;;;5016223;28;20203;-76
2022/05/18 10:17:36;;;;;;;3.47;2.03;;;25.50;99.90;;;;;;5034221;28;20546;-77
2022/05/18 10:20:24;;;;;;;8.83;2.20;;;25.50;99.90;;;;;;5016256;28;20654;-77
2022/05/18 10:22:50;;;;;;;5.23;2.10;;;25.60;99.90;;;;;;5016112;28;20188;-78
2022/05/18 10:25:48;;;;;;;4.80;1.77;;;25.50;99.90;;;;;;5016178;28;20176;-77
2022/05/18 10:28:27;;;;;;;4.50;1.90;;;25.80;99.90;;;;;;5033957;28;20184;-77
2022/05/18 10:31:03;;;;;;;2.63;1.53;;;25.90;99.90;;;;;;5033871;28;20541;-78
2022/05/18 10:33:41;;;;;;;3.73;1.73;;;26.00;99.90;;;;;;5016151;28;20196;-77
2022/05/18 10:36:13;;;;;;;6.30;1.98;;;26.10;99.90;;;;;;5034149;28;20515;-77
2022/05/18 10:38:51;;;;;;;6.87;2.47;;;26.20;1.00;;;;;;5033695;28;20271;-77
2022/05/18 10:41:21;;;;;;;3.13;1.90;;;26.30;1.00;;;;;;5033555;28;20195;-77
2022/05/18 10:43:59;;;;;;;3.83;1.85;;;26.30;1.00;;;;;;5015789;28;20211;-77
2022/05/18 10:46:40;;;;;;;4.15;2.30;;;26.30;1.00;;;;;;5033612;28;20177;-77
2022/05/18 10:49:21;;;;;;;4.20;2.30;;;26.40;1.00;;;;;;5033906;28;20156;-77
2022/05/18 10:51:46;;;;;;;3.33;1.70;;;26.40;99.90;;;;;;5016071;28;20649;-77
2022/05/18 10:54:18;;;;;;;4.30;1.98;;;26.40;1.00;;;;;;5033665;28;20204;-77
2022/05/18 10:56:45;;;;;;;7.13;2.35;;;26.30;99.90;;;;;;5015313;28;20203;-77
2022/05/18 10:59:34;;;;;;;6.20;2.08;;;26.30;1.00;;;;;;5015496;28;20183;-77
2022/05/18 11:02:10;;;;;;;4.78;2.20;;;26.40;1.00;;;;;;5015562;28;20193;-77
2022/05/18 11:05:11;;;;;;;4.70;2.20;;;26.50;99.90;;;;;;5033156;28;20210;-77
2022/05/18 11:07:36;;;;;;;3.92;2.25;;;26.40;1.00;;;;;;5031746;28;20527;-77
2022/05/18 11:10:03;;;;;;;4.50;2.00;;;26.40;1.00;;;;;;5015706;28;20176;-77
2022/05/18 11:12:37;;;;;;;4.63;2.10;;;26.40;1.00;;;;;;5033128;28;20187;-77
2022/05/18 11:15:16;;;;;;;6.00;2.30;;;26.50;1.00;;;;;;5015429;28;20179;-77
2022/05/18 11:18:04;;;;;;;4.05;2.10;;;26.50;99.90;;;;;;5015491;28;20176;-77
2022/05/18 11:20:55;;;;;;;4.88;2.17;;;26.60;99.90;;;;;;5015151;28;20184;-77
2022/05/18 11:23:39;;;;;;;4.25;2.22;;;26.60;99.90;;;;;;5033081;28;20188;-78
2022/05/18 11:26:30;;;;;;;5.53;2.50;;;26.80;99.90;;;;;;5033008;28;20168;-77
2022/05/18 11:29:18;;;;;;;5.15;2.38;;;26.80;99.90;;;;;;5033193;28;20152;-77
2022/05/18 11:32:26;;;;;;;3.50;2.00;;;26.80;99.90;;;;;;5015310;28;20172;-77
2022/05/18 11:35:14;;;;;;;4.32;1.83;;;26.90;99.90;;;;;;5033088;28;20188;-77
2022/05/18 11:37:52;;;;;;;4.40;1.98;;;27.00;99.90;;;;;;5033100;28;20234;-77
2022/05/18 11:40:56;;;;;;;4.07;1.98;;;27.00;99.90;;;;;;5033392;28;20179;-77
2022/05/18 11:43:49;;;;;;;2.95;1.67;;;27.00;99.90;;;;;;5025018;28;20223;-77
2022/05/18 11:46:53;;;;;;;3.72;1.90;;;27.00;99.90;;;;;;5031818;28;20206;-77
2022/05/18 11:49:20;;;;;;;4.85;1.77;;;27.00;99.90;;;;;;5013482;28;20605;-77
2022/05/18 11:52:17;;;;;;;4.47;1.70;;;27.10;99.90;;;;;;5032955;28;20168;-77
2022/05/18 11:55:03;;;;;;;3.42;1.80;;;27.10;81.10;;;;;;5032842;28;20569;-77
2022/05/18 11:57:58;;;;;;;3.08;2.10;;;27.20;49.00;;;;;;5033053;28;20163;-78
2022/05/18 12:03:13;;;;;;;2.67;1.60;;;27.40;1.00;;;;;;5032832;28;20208;-78
2022/05/18 12:05:43;;;;;;;6.45;1.90;;;27.60;1.00;;;;;;5014972;28;20176;-75
2022/05/18 12:08:26;;;;;;;3.97;1.80;;;27.60;1.00;;;;;;5032887;28;20602;-76
2022/05/18 12:11:15;;;;;;;3.75;1.67;;;27.70;1.00;;;;;;5032943;28;20232;-76
2022/05/18 12:13:54;;;;;;;2.40;1.55;;;27.90;1.00;;;;;;5032379;28;20204;-77
2022/05/18 12:16:31;;;;;;;3.78;1.80;;;27.90;1.00;;;;;;5032503;28;20232;-76
2022/05/18 12:19:22;;;;;;;3.60;1.75;;;27.90;1.00;;;;;;5014780;28;20196;-76
2022/05/18 12:21:59;;;;;;;2.55;1.83;;;27.90;1.00;;;;;;5032395;28;20216;-77
2022/05/18 12:24:26;;;;;;;3.25;1.50;;;27.90;1.00;;;;;;5032367;28;20241;-76
2022/05/18 12:26:54;;;;;;;4.07;2.03;;;27.80;1.00;;;;;;5032432;28;20181;-76
2022/05/18 12:29:22;;;;;;;2.40;1.60;;;27.80;1.00;;;;;;5033981;28;20175;-77
2022/05/18 12:31:49;;;;;;;4.68;1.80;;;27.90;1.00;;;;;;5036284;28;20226;-77
2022/05/18 12:34:20;;;;;;;4.05;1.55;;;28.00;1.00;;;;;;5018221;28;20199;-76
2022/05/18 12:36:46;;;;;;;2.30;1.55;;;28.10;1.00;;;;;;5035937;28;20161;-76
2022/05/18 12:39:37;;;;;;;4.80;1.65;;;28.30;1.00;;;;;;5035905;28;20204;-76
2022/05/18 12:42:03;;;;;;;5.07;1.88;;;28.30;1.00;;;;;;5034464;28;20200;-76
2022/05/18 12:45:03;;;;;;;4.15;1.60;;;28.30;1.00;;;;;;5017716;28;20262;-76
2022/05/18 12:47:39;;;;;;;3.25;1.50;;;28.30;1.00;;;;;;5035602;28;20183;-76
2022/05/18 12:50:15;;;;;;;2.97;1.70;;;28.30;1.00;;;;;;5036024;28;20230;-77
2022/05/18 12:52:57;;;;;;;6.97;2.00;;;28.50;1.00;;;;;;5017839;28;20168;-77
2022/05/18 12:55:31;;;;;;;4.50;1.33;;;28.60;1.00;;;;;;5035825;28;20191;-77
2022/05/18 12:58:22;;;;;;;3.67;1.70;;;28.80;1.00;;;;;;5035668;28;20174;-76
2022/05/18 13:01:14;;;;;;;3.55;1.63;;;28.80;1.00;;;;;;5017881;28;20218;-76
2022/05/18 13:04:05;;;;;;;2.85;2.00;;;28.90;1.00;;;;;;5035475;28;20200;-76
2022/05/18 13:06:31;;;;;;;4.03;1.95;;;28.90;1.00;;;;;;5035525;28;20183;-76
2022/05/18 13:09:20;;;;;;;4.40;1.85;;;29.00;1.00;;;;;;5035658;28;20656;-76
2022/05/18 13:11:49;;;;;;;5.07;1.90;;;29.00;1.00;;;;;;5034014;28;20242;-75
2022/05/18 13:14:22;;;;;;;3.78;1.80;;;29.00;1.00;;;;;;5017429;28;20242;-76
2022/05/18 13:16:48;;;;;;;3.97;1.88;;;29.10;1.00;;;;;;5017546;28;20176;-76
2022/05/18 13:19:13;;;;;;;3.53;1.80;;;29.10;1.00;;;;;;5035285;28;20195;-76
2022/05/18 13:22:07;;;;;;;3.45;1.60;;;29.10;1.00;;;;;;5035194;28;20279;-76
2022/05/18 13:24:44;;;;;;;5.65;1.50;;;29.10;1.00;;;;;;5017349;28;20290;-76
2022/05/18 13:27:15;;;;;;;2.00;1.40;;;29.20;1.00;;;;;;5035574;28;20156;-76
2022/05/18 13:29:42;;;;;;;3.55;1.70;;;29.30;1.00;;;;;;5035077;28;20240;-76
2022/05/18 13:32:11;;;;;;;2.75;1.95;;;29.40;1.00;;;;;;5017950;28;20235;-75
2022/05/18 13:35:01;;;;;;;4.20;2.17;;;29.40;1.00;;;;;;5017115;28;20196;-76